createdAt,value
2018-07-09T00:00:34.133Z,2.00
2018-07-09T00:03:01.924Z,2.37
2018-07-09T00:05:29.457Z,2.33
2018-07-09T00:07:57.005Z,2.47
2018-07-09T00:10:35.893Z,2.40
2018-07-09T00:13:03.448Z,2.10
2018-07-09T00:15:31.000Z,2.20
2018-07-09T00:17:58.540Z,2.40
2018-07-09T00:20:26.115Z,2.10
2018-07-09T00:22:53.909Z,2.20
2018-07-09T00:25:21.452Z,2.40
2018-07-09T00:27:49.044Z,2.40
2018-07-09T00:30:16.604Z,2.50
2018-07-09T00:32:44.186Z,2.50
2018-07-09T00:35:11.652Z,2.57
2018-07-09T00:37:39.175Z,2.30
2018-07-09T00:40:06.723Z,2.37
2018-07-09T00:42:34.860Z,2.50
2018-07-09T00:45:02.449Z,2.60
2018-07-09T00:47:30.002Z,2.67
2018-07-09T00:49:57.644Z,2.90
2018-07-09T00:52:25.228Z,2.37
2018-07-09T00:54:52.780Z,2.80
2018-07-09T00:57:20.404Z,2.53
2018-07-09T00:59:47.997Z,2.60
2018-07-09T01:02:15.526Z,3.00
2018-07-09T01:04:43.069Z,2.83
2018-07-09T01:07:10.515Z,2.70
2018-07-09T01:09:38.008Z,2.83
2018-07-09T01:12:10.098Z,2.87
2018-07-09T01:14:38.337Z,2.87
2018-07-09T01:17:06.224Z,2.70
2018-07-09T01:19:33.812Z,2.63
2018-07-09T01:22:02.055Z,2.90
2018-07-09T01:24:29.585Z,3.03
2018-07-09T01:26:57.221Z,2.70
2018-07-09T01:29:24.809Z,2.93
2018-07-09T01:31:52.387Z,3.00
2018-07-09T01:34:19.916Z,3.33
2018-07-09T01:36:47.456Z,3.20
2018-07-09T01:39:14.998Z,3.00
2018-07-09T01:41:42.628Z,3.30
2018-07-09T01:44:10.148Z,3.30
2018-07-09T01:46:37.616Z,2.87
2018-07-09T01:49:05.139Z,2.97
2018-07-09T01:51:32.685Z,3.60
2018-07-09T01:54:00.261Z,3.70
2018-07-09T01:56:27.799Z,3.13
2018-07-09T01:58:55.353Z,3.10
2018-07-09T02:01:22.884Z,3.40
2018-07-09T02:03:50.448Z,3.50
2018-07-09T02:06:18.000Z,3.57
2018-07-09T02:08:45.560Z,3.37
2018-07-09T02:11:13.091Z,3.70
2018-07-09T02:13:40.577Z,3.30
2018-07-09T02:16:08.096Z,4.07
2018-07-09T02:18:35.684Z,3.90
2018-07-09T02:21:03.269Z,3.30
2018-07-09T02:23:30.814Z,3.37
2018-07-09T02:25:58.460Z,4.00
2018-07-09T02:28:26.008Z,3.17
2018-07-09T02:30:53.468Z,4.10
2018-07-09T02:33:21.002Z,4.07
2018-07-09T02:35:48.595Z,3.47
2018-07-09T02:38:16.152Z,3.63
2018-07-09T02:40:43.700Z,3.53
2018-07-09T02:43:11.232Z,3.77
2018-07-09T02:45:38.833Z,3.83
2018-07-09T02:48:06.390Z,3.60
2018-07-09T02:50:33.964Z,3.47
2018-07-09T02:53:01.489Z,3.27
2018-07-09T02:55:28.964Z,3.77
2018-07-09T02:57:56.485Z,3.80
2018-07-09T03:03:45.524Z,3.77
2018-07-09T03:06:13.093Z,4.10
2018-07-09T03:08:40.635Z,3.90
2018-07-09T03:11:08.417Z,4.33
2018-07-09T03:13:35.977Z,3.90
2018-07-09T03:16:03.561Z,3.87
2018-07-09T03:18:31.101Z,4.40
2018-07-09T03:20:58.685Z,4.10
2018-07-09T03:23:26.208Z,4.03
2018-07-09T03:25:53.777Z,4.13
2018-07-09T03:28:21.301Z,4.00
2018-07-09T03:30:48.845Z,4.00
2018-07-09T03:33:16.396Z,3.93
2018-07-09T03:35:44.017Z,4.13
2018-07-09T03:38:11.573Z,4.10
2018-07-09T03:40:39.116Z,4.00
2018-07-09T03:43:06.677Z,3.53
2018-07-09T03:45:34.205Z,3.97
2018-07-09T03:48:01.744Z,4.00
2018-07-09T03:50:29.280Z,3.53
2018-07-09T03:52:56.837Z,3.87
2018-07-09T03:55:24.363Z,3.37
2018-07-09T03:57:52.200Z,3.87
2018-07-09T04:00:19.680Z,3.33
2018-07-09T04:02:47.233Z,3.90
2018-07-09T04:05:14.781Z,3.90
2018-07-09T04:07:42.346Z,4.20
2018-07-09T04:10:09.872Z,4.43
2018-07-09T04:12:37.412Z,4.43
2018-07-09T04:15:04.948Z,4.27
2018-07-09T04:17:32.524Z,4.00
2018-07-09T04:20:00.078Z,3.73
2018-07-09T04:22:27.665Z,3.87
2018-07-09T04:24:55.104Z,3.60
2018-07-09T04:27:22.729Z,4.10
2018-07-09T04:29:50.253Z,3.90
2018-07-09T04:32:17.825Z,3.80
2018-07-09T04:34:45.332Z,3.67
2018-07-09T04:37:12.852Z,3.87
2018-07-09T04:39:40.388Z,3.70
2018-07-09T04:42:07.928Z,3.87
2018-07-09T04:44:35.477Z,3.77
2018-07-09T04:47:03.068Z,3.67
2018-07-09T04:49:30.757Z,3.67
2018-07-09T04:51:58.268Z,3.40
2018-07-09T04:54:25.751Z,3.20
2018-07-09T04:56:53.273Z,3.27
2018-07-09T04:59:20.816Z,3.50
2018-07-09T05:01:48.356Z,3.60
2018-07-09T05:04:15.901Z,3.33
2018-07-09T05:06:43.428Z,4.17
2018-07-09T05:09:10.877Z,3.43
2018-07-09T05:11:38.331Z,3.33
2018-07-09T05:14:05.787Z,4.20
2018-07-09T05:16:33.260Z,3.50
2018-07-09T05:19:01.069Z,3.63
2018-07-09T05:21:28.581Z,3.23
2018-07-09T05:23:56.144Z,3.77
2018-07-09T05:26:23.681Z,3.37
2018-07-09T05:28:51.916Z,3.00
2018-07-09T05:31:19.432Z,3.67
2018-07-09T05:33:47.016Z,3.57
2018-07-09T05:36:14.532Z,3.40
2018-07-09T05:38:42.089Z,3.50
2018-07-09T05:41:09.600Z,3.30
2018-07-09T05:43:37.747Z,3.13
2018-07-09T05:46:05.957Z,3.43
2018-07-09T05:48:33.565Z,3.40
2018-07-09T05:51:01.119Z,3.13
2018-07-09T05:53:28.604Z,3.10
2018-07-09T05:55:56.193Z,3.40
2018-07-09T05:58:23.733Z,3.60
2018-07-09T06:00:51.353Z,3.70
2018-07-09T06:03:18.785Z,3.27
2018-07-09T06:05:46.329Z,3.50
2018-07-09T06:08:14.112Z,4.20
2018-07-09T06:10:41.705Z,3.67
2018-07-09T06:13:09.243Z,3.70
2018-07-09T06:15:36.711Z,2.97
2018-07-09T06:18:04.204Z,2.93
2018-07-09T06:20:31.901Z,2.70
2018-07-09T06:22:59.516Z,2.80
2018-07-09T06:25:27.166Z,2.37
2018-07-09T06:27:54.750Z,3.20
2018-07-09T06:30:22.396Z,2.80
2018-07-09T06:32:49.944Z,2.30
2018-07-09T06:35:18.063Z,2.40
2018-07-09T06:37:45.645Z,2.70
2018-07-09T06:40:13.436Z,2.40
2018-07-09T06:42:41.056Z,2.47
2018-07-09T06:45:08.550Z,2.33
2018-07-09T06:47:36.069Z,2.37
2018-07-09T06:50:03.803Z,2.50
2018-07-09T06:52:31.356Z,2.43
2018-07-09T06:54:58.909Z,2.37
2018-07-09T06:57:26.464Z,2.57
2018-07-09T06:59:53.997Z,2.43
2018-07-09T07:02:21.543Z,2.30
2018-07-09T07:04:49.013Z,2.00
2018-07-09T07:07:16.507Z,2.40
2018-07-09T07:09:44.365Z,2.17
2018-07-09T07:12:11.933Z,2.07
2018-07-09T07:14:39.448Z,2.37
2018-07-09T07:17:07.024Z,2.00
2018-07-09T07:19:34.480Z,2.10
2018-07-09T07:22:02.017Z,2.40
2018-07-09T07:24:29.569Z,2.20
2018-07-09T07:26:57.116Z,2.00
2018-07-09T07:29:24.698Z,2.50
2018-07-09T07:31:52.281Z,2.10
2018-07-09T07:34:19.917Z,2.20
2018-07-09T07:36:47.391Z,2.23
2018-07-09T07:39:15.031Z,2.00
2018-07-09T07:41:42.673Z,2.00
2018-07-09T07:44:10.233Z,2.20
2018-07-09T07:46:37.781Z,2.10
2018-07-09T07:49:05.405Z,2.13
2018-07-09T07:51:33.285Z,1.80
2018-07-09T07:54:00.852Z,2.30
2018-07-09T07:56:28.469Z,2.57
2018-07-09T07:58:56.051Z,2.20
2018-07-09T08:01:23.730Z,2.90
2018-07-09T08:03:51.299Z,2.10
2018-07-09T08:06:18.896Z,2.30
2018-07-09T08:08:46.445Z,2.40
2018-07-09T08:11:14.182Z,1.97
2018-07-09T08:13:41.859Z,5.23
2018-07-09T08:16:09.443Z,2.00
2018-07-09T08:18:37.089Z,2.03
2018-07-09T08:21:04.932Z,2.40
2018-07-09T08:23:32.527Z,2.27
2018-07-09T08:26:00.167Z,2.30
2018-07-09T08:28:27.794Z,2.10
2018-07-09T08:30:55.436Z,2.53
2018-07-09T08:33:23.076Z,1.97
2018-07-09T08:35:50.613Z,1.90
2018-07-09T08:38:18.265Z,1.80
2018-07-09T08:40:45.875Z,2.37
2018-07-09T08:43:13.423Z,1.97
2018-07-09T08:45:40.938Z,2.13
2018-07-09T08:48:08.609Z,2.20
2018-07-09T08:50:36.157Z,2.20
2018-07-09T08:53:03.818Z,2.27
2018-07-09T08:55:31.473Z,1.97
2018-07-09T08:57:59.196Z,2.40
2018-07-09T09:00:26.773Z,2.50
2018-07-09T09:02:54.331Z,2.40
2018-07-09T09:05:21.883Z,2.53
2018-07-09T09:07:49.453Z,2.80
2018-07-09T09:10:16.975Z,2.80
2018-07-09T09:12:44.556Z,2.67
2018-07-09T09:15:12.145Z,2.73
2018-07-09T09:17:39.728Z,2.63
2018-07-09T09:20:07.304Z,2.60
2018-07-09T09:22:34.857Z,2.60
2018-07-09T09:25:02.441Z,2.80
2018-07-09T09:27:29.937Z,2.70
2018-07-09T09:29:57.464Z,2.80
2018-07-09T09:32:24.915Z,2.17
2018-07-09T09:34:52.372Z,2.50
2018-07-09T09:37:19.891Z,2.40
2018-07-09T09:39:47.406Z,2.47
2018-07-09T09:42:14.917Z,2.23
2018-07-09T09:44:42.512Z,2.60
2018-07-09T09:47:10.093Z,2.47
2018-07-09T09:49:37.717Z,2.00
2018-07-09T09:52:05.206Z,2.40
2018-07-09T09:54:32.793Z,2.43
2018-07-09T09:57:00.384Z,2.37
2018-07-09T09:59:28.000Z,2.50
2018-07-09T10:01:55.636Z,2.40
2018-07-09T10:04:23.266Z,2.13
2018-07-09T10:06:50.792Z,1.90
2018-07-09T10:09:18.353Z,2.23
2018-07-09T10:11:45.917Z,3.17
2018-07-09T10:14:13.482Z,2.63
2018-07-09T10:16:41.313Z,2.70
2018-07-09T10:19:09.178Z,2.67
2018-07-09T10:21:37.149Z,2.60
2018-07-09T10:24:05.134Z,2.33
2018-07-09T10:26:32.679Z,2.40
2018-07-09T10:29:00.221Z,2.70
2018-07-09T10:31:28.104Z,3.10
2018-07-09T10:33:55.659Z,2.77
2018-07-09T10:36:23.216Z,2.63
2018-07-09T10:38:50.872Z,2.80
2018-07-09T10:41:18.467Z,2.87
2018-07-09T10:43:46.030Z,2.57
2018-07-09T10:46:13.609Z,2.57
2018-07-09T10:48:41.253Z,2.70
2018-07-09T10:51:08.904Z,1.90
2018-07-09T10:53:36.500Z,2.47
2018-07-09T10:56:04.416Z,2.27
2018-07-09T10:58:32.020Z,1.93
2018-07-09T11:00:59.568Z,2.10
2018-07-09T11:03:27.143Z,2.27
2018-07-09T11:05:54.640Z,2.20
2018-07-09T11:08:22.225Z,1.90
2018-07-09T11:10:49.804Z,2.30
2018-07-09T11:13:17.371Z,1.93
2018-07-09T11:15:44.880Z,2.00
2018-07-09T11:18:12.428Z,2.37
2018-07-09T11:20:39.999Z,2.20
2018-07-09T11:23:07.554Z,2.00
2018-07-09T11:25:35.201Z,1.70
2018-07-09T11:28:03.616Z,1.80
2018-07-09T11:30:31.190Z,1.70
2018-07-09T11:32:58.751Z,1.50
2018-07-09T11:35:26.276Z,1.50
2018-07-09T11:37:53.860Z,1.40
2018-07-09T11:40:21.413Z,1.97
2018-07-09T11:42:48.952Z,1.43
2018-07-09T11:45:16.668Z,1.30
2018-07-09T11:47:44.326Z,1.50
2018-07-09T11:50:11.856Z,1.20
2018-07-09T11:52:39.450Z,1.20
2018-07-09T11:55:07.021Z,1.00
2018-07-09T11:57:34.564Z,1.33
2018-07-09T12:00:02.281Z,1.33
2018-07-09T12:02:30.479Z,1.20
2018-07-09T12:04:58.133Z,1.40
2018-07-09T12:07:25.721Z,1.30
2018-07-09T12:09:53.256Z,1.30
2018-07-09T12:12:20.910Z,1.53
2018-07-09T12:14:48.522Z,1.60
2018-07-09T12:17:16.105Z,1.40
2018-07-09T12:19:43.765Z,1.57
2018-07-09T12:22:11.314Z,1.60
2018-07-09T12:24:38.909Z,1.80
2018-07-09T12:27:06.446Z,1.97
2018-07-09T12:29:34.065Z,1.63
2018-07-09T12:32:01.614Z,1.80
2018-07-09T12:34:29.240Z,1.37
2018-07-09T12:36:56.873Z,1.43
2018-07-09T12:39:24.433Z,1.70
2018-07-09T12:41:52.092Z,1.83
2018-07-09T12:44:19.669Z,1.60
2018-07-09T12:46:47.217Z,1.70
2018-07-09T12:49:14.772Z,2.30
2018-07-09T12:51:42.442Z,1.60
2018-07-09T12:54:09.976Z,1.60
2018-07-09T12:56:37.482Z,1.30
2018-07-09T12:59:05.123Z,1.40
2018-07-09T13:01:32.824Z,1.40
2018-07-09T13:04:00.364Z,1.93
2018-07-09T13:06:27.961Z,1.80
2018-07-09T13:08:55.504Z,1.87
2018-07-09T13:11:23.941Z,1.97
2018-07-09T13:13:51.585Z,1.80
2018-07-09T13:16:19.185Z,1.70
2018-07-09T13:18:46.803Z,2.00
2018-07-09T13:21:14.449Z,1.80
2018-07-09T13:23:42.053Z,1.80
2018-07-09T13:26:09.640Z,1.90
2018-07-09T13:28:37.179Z,2.30
2018-07-09T13:31:04.949Z,2.00
2018-07-09T13:33:32.484Z,1.60
2018-07-09T13:36:00.123Z,2.23
2018-07-09T13:38:27.945Z,1.90
2018-07-09T13:40:55.544Z,1.87
2018-07-09T13:43:23.008Z,1.80
2018-07-09T13:45:50.598Z,1.70
2018-07-09T13:48:18.300Z,1.60
2018-07-09T13:50:45.955Z,1.40
2018-07-09T13:53:13.929Z,1.70
2018-07-09T13:55:41.951Z,1.50
2018-07-09T13:58:09.940Z,1.50
2018-07-09T14:00:37.524Z,1.70
2018-07-09T14:03:05.065Z,1.60
2018-07-09T14:05:32.647Z,1.67
2018-07-09T14:08:00.237Z,1.60
2018-07-09T14:10:27.836Z,1.50
2018-07-09T14:12:55.388Z,1.63
2018-07-09T14:15:22.949Z,1.63
2018-07-09T14:17:50.525Z,1.50
2018-07-09T14:20:28.877Z,1.70
2018-07-09T14:22:56.600Z,1.70
2018-07-09T14:25:24.181Z,1.57
2018-07-09T14:27:51.760Z,1.83
2018-07-09T14:30:19.252Z,1.67
2018-07-09T14:32:46.880Z,1.50
2018-07-09T14:35:14.356Z,1.43
2018-07-09T14:37:42.173Z,1.80
2018-07-09T14:40:09.745Z,1.70
2018-07-09T14:42:37.340Z,1.60
2018-07-09T14:45:05.215Z,1.63
2018-07-09T14:47:33.018Z,2.07
2018-07-09T14:50:00.762Z,1.40
2018-07-09T14:52:28.944Z,1.70
2018-07-09T14:54:56.784Z,1.60
2018-07-09T14:57:24.376Z,1.70
2018-07-09T14:59:51.975Z,1.87
2018-07-09T15:02:19.423Z,1.97
2018-07-09T15:04:47.056Z,1.90
2018-07-09T15:07:14.632Z,1.40
2018-07-09T15:09:42.188Z,1.67
2018-07-09T15:12:09.797Z,1.93
2018-07-09T15:14:37.432Z,1.73
2018-07-09T15:17:05.217Z,1.73
2018-07-09T15:19:32.819Z,1.93
2018-07-09T15:22:00.394Z,2.10
2018-07-09T15:24:28.016Z,1.70
2018-07-09T15:26:55.656Z,1.40
2018-07-09T15:29:23.225Z,1.60
2018-07-09T15:32:02.354Z,1.70
2018-07-09T15:34:30.025Z,1.70
2018-07-09T15:36:57.740Z,1.37
2018-07-09T15:39:25.334Z,1.83
2018-07-09T15:41:52.978Z,1.90
2018-07-09T15:44:20.569Z,1.60
2018-07-09T15:46:48.134Z,1.63
2018-07-09T15:49:16.666Z,1.80
2018-07-09T15:51:44.248Z,1.60
2018-07-09T15:54:11.904Z,1.50
2018-07-09T15:56:39.480Z,1.63
2018-07-09T15:59:07.029Z,1.40
2018-07-09T16:01:34.597Z,1.80
2018-07-09T16:04:02.140Z,1.50
2018-07-09T16:06:29.724Z,1.40
2018-07-09T16:08:57.284Z,1.57
2018-07-09T16:11:24.855Z,1.30
2018-07-09T16:13:52.494Z,1.23
2018-07-09T16:16:20.785Z,1.30
2018-07-09T16:18:48.335Z,1.50
2018-07-09T16:21:15.947Z,1.60
2018-07-09T16:23:43.608Z,1.37
2018-07-09T16:26:11.251Z,1.30
2018-07-09T16:28:38.843Z,1.20
2018-07-09T16:31:06.582Z,1.20
2018-07-09T16:33:34.132Z,1.30
2018-07-09T16:36:02.197Z,1.20
2018-07-09T16:38:30.031Z,1.20
2018-07-09T16:40:57.913Z,1.20
2018-07-09T16:43:25.797Z,1.20
2018-07-09T16:45:53.757Z,1.27
2018-07-09T16:48:21.399Z,1.30
2018-07-09T16:50:49.905Z,1.10
2018-07-09T16:53:17.684Z,1.30
2018-07-09T16:55:45.371Z,1.40
2018-07-09T16:58:13.061Z,1.60
2018-07-09T17:00:40.698Z,1.20
2018-07-09T17:03:08.863Z,1.20
2018-07-09T17:05:36.765Z,1.43
2018-07-09T17:08:04.965Z,1.30
2018-07-09T17:10:32.657Z,1.40
2018-07-09T17:13:00.276Z,1.23
2018-07-09T17:15:27.886Z,1.43
2018-07-09T17:17:55.527Z,1.40
2018-07-09T17:20:23.241Z,1.60
2018-07-09T17:22:50.886Z,1.20
2018-07-09T17:25:18.638Z,1.40
2018-07-09T17:27:46.276Z,1.27
2018-07-09T17:30:14.217Z,1.10
2018-07-09T17:32:42.526Z,1.17
2018-07-09T17:35:10.089Z,1.30
2018-07-09T17:37:38.268Z,1.30
2018-07-09T17:40:06.321Z,1.50
2018-07-09T17:42:34.051Z,1.10
2018-07-09T17:45:02.016Z,1.20
2018-07-09T17:47:29.804Z,1.33
2018-07-09T17:49:57.589Z,1.20
2018-07-09T17:52:25.151Z,1.10
2018-07-09T17:54:52.879Z,1.20
2018-07-09T17:57:20.842Z,1.20
2018-07-09T17:59:48.436Z,1.10
2018-07-09T18:02:16.360Z,1.00
2018-07-09T18:04:43.944Z,1.10
2018-07-09T18:07:11.504Z,1.10
2018-07-09T18:09:39.077Z,1.27
2018-07-09T18:12:06.674Z,1.20
2018-07-09T18:14:34.285Z,1.13
2018-07-09T18:17:01.877Z,1.03
2018-07-09T18:19:29.524Z,1.13
2018-07-09T18:21:57.088Z,1.23
2018-07-09T18:24:24.640Z,1.20
2018-07-09T18:26:52.204Z,1.00
2018-07-09T18:29:19.756Z,1.10
2018-07-09T18:31:47.348Z,1.30
2018-07-09T18:34:14.833Z,1.10
2018-07-09T18:36:42.717Z,1.50
2018-07-09T18:39:10.765Z,1.27
2018-07-09T18:41:38.441Z,1.30
2018-07-09T18:44:06.184Z,1.30
2018-07-09T18:46:33.732Z,1.40
2018-07-09T18:49:01.179Z,1.37
2018-07-09T18:51:28.742Z,1.30
2018-07-09T18:53:56.209Z,1.40
2018-07-09T18:56:23.781Z,1.23
2018-07-09T18:58:51.368Z,1.30
2018-07-09T19:01:18.970Z,1.67
2018-07-09T19:03:46.440Z,1.30
2018-07-09T19:06:50.684Z,1.63
2018-07-09T19:09:18.645Z,1.50
2018-07-09T19:11:46.245Z,1.70
2018-07-09T19:14:13.845Z,1.23
2018-07-09T19:16:53.325Z,1.30
2018-07-09T19:19:33.043Z,1.50
2018-07-09T19:22:01.749Z,1.67
2018-07-09T19:24:28.786Z,1.50
2018-07-09T19:26:55.849Z,1.53
2018-07-09T19:29:22.329Z,1.23
2018-07-09T19:31:48.802Z,1.53
2018-07-09T19:34:15.286Z,1.57
2018-07-09T19:36:42.000Z,1.70
2018-07-09T19:39:09.240Z,1.40
2018-07-09T19:41:35.759Z,1.40
2018-07-09T19:44:02.661Z,1.67
2018-07-09T19:46:29.588Z,1.63
2018-07-09T19:48:56.068Z,1.50
2018-07-09T19:51:22.814Z,1.93
2018-07-09T19:53:49.473Z,1.60
2018-07-09T19:56:15.936Z,1.60
2018-07-09T19:58:42.636Z,1.40
2018-07-09T20:01:09.261Z,1.83
2018-07-09T20:03:35.742Z,1.70
2018-07-09T20:06:02.206Z,1.60
2018-07-09T20:08:34.712Z,1.60
2018-07-09T20:11:06.740Z,1.50
2018-07-09T20:13:51.480Z,1.63
2018-07-09T20:16:23.599Z,2.10
2018-07-09T20:18:51.576Z,1.60
2018-07-09T20:21:18.053Z,1.50
2018-07-09T20:23:44.532Z,1.87
2018-07-09T20:26:10.986Z,1.97
2018-07-09T20:28:37.440Z,2.00
2018-07-09T20:31:03.920Z,2.00
2018-07-09T20:33:30.381Z,1.63
2018-07-09T20:35:56.877Z,1.90
2018-07-09T20:38:23.800Z,1.70
2018-07-09T20:40:50.281Z,2.10
2018-07-09T20:43:17.229Z,1.90
2018-07-09T20:45:43.774Z,2.00
2018-07-09T20:48:10.193Z,1.87
2018-07-09T20:50:36.669Z,2.00
2018-07-09T20:53:03.136Z,2.10
2018-07-09T20:55:29.619Z,1.80
2018-07-09T20:57:56.079Z,2.27
2018-07-09T21:00:22.549Z,1.90
2018-07-09T21:02:49.016Z,2.13
2018-07-09T21:05:15.496Z,2.40
2018-07-09T21:07:42.412Z,2.20
2018-07-09T21:10:08.897Z,2.43
2018-07-09T21:12:41.025Z,2.07
2018-07-09T21:15:07.510Z,2.43
2018-07-09T21:17:33.989Z,2.40
2018-07-09T21:20:00.481Z,2.53
2018-07-09T21:22:26.961Z,2.20
2018-07-09T21:24:53.427Z,2.50
2018-07-09T21:27:19.908Z,2.10
2018-07-09T21:29:46.366Z,2.20
2018-07-09T21:32:12.845Z,2.53
2018-07-09T21:34:39.303Z,2.60
2018-07-09T21:37:05.800Z,2.20
2018-07-09T21:39:32.256Z,2.67
2018-07-09T21:41:58.744Z,2.50
2018-07-09T21:44:25.249Z,2.57
2018-07-09T21:46:51.720Z,2.50
2018-07-09T21:49:18.185Z,2.20
2018-07-09T21:51:44.663Z,2.47
2018-07-09T21:54:11.121Z,2.30
2018-07-09T21:56:37.618Z,2.50
2018-07-09T21:59:04.080Z,2.50
2018-07-09T22:01:30.993Z,2.50
2018-07-09T22:03:57.477Z,2.70
2018-07-09T22:06:23.937Z,2.50
2018-07-09T22:08:50.412Z,2.60
2018-07-09T22:11:16.881Z,2.47
2018-07-09T22:13:43.385Z,3.00
2018-07-09T22:16:10.308Z,3.00
2018-07-09T22:18:36.789Z,2.50
2018-07-09T22:21:03.268Z,2.70
2018-07-09T22:23:29.756Z,2.57
2018-07-09T22:25:56.220Z,3.10
2018-07-09T22:28:22.710Z,2.90
2018-07-09T22:30:50.269Z,3.07
2018-07-09T22:33:17.813Z,2.90
2018-07-09T22:35:45.295Z,2.87
2018-07-09T22:38:12.868Z,3.07
2018-07-09T22:40:40.373Z,3.07
2018-07-09T22:44:14.138Z,2.87
2018-07-09T22:46:41.660Z,3.10
2018-07-09T22:49:09.143Z,2.90
2018-07-09T22:51:36.693Z,3.17
2018-07-09T22:54:04.500Z,2.87
2018-07-09T22:56:32.031Z,3.27
2018-07-09T22:58:59.590Z,3.20
2018-07-09T23:01:27.157Z,3.50
2018-07-09T23:03:54.709Z,3.20
2018-07-09T23:06:22.277Z,3.10
2018-07-09T23:08:49.721Z,3.53
2018-07-09T23:13:31.173Z,2.90
2018-07-09T23:17:07.901Z,3.23
2018-07-09T23:21:54.913Z,3.57
2018-07-09T23:24:21.383Z,3.40
2018-07-09T23:26:47.856Z,3.23
2018-07-09T23:29:14.330Z,3.47
2018-07-09T23:31:40.805Z,3.30
2018-07-09T23:34:07.296Z,3.60
2018-07-09T23:36:33.792Z,3.60
2018-07-09T23:39:00.704Z,3.47
2018-07-09T23:41:27.196Z,3.37
2018-07-09T23:43:53.652Z,4.00
2018-07-09T23:46:20.117Z,3.97
2018-07-09T23:48:46.629Z,3.80
2018-07-09T23:51:13.083Z,3.70
2018-07-09T23:53:39.564Z,3.70
2018-07-09T23:57:19.894Z,3.40
2018-07-09T23:59:58.777Z,3.43
